createdAt,value
2022-11-09T00:01:29.948Z,97033.81
2022-11-09T00:03:59.405Z,97034.78
2022-11-09T00:06:28.461Z,97027.00
2022-11-09T00:09:02.633Z,97028.97
2022-11-09T00:11:34.344Z,97030.63
2022-11-09T00:14:02.821Z,97024.50
2022-11-09T00:16:31.257Z,97023.69
2022-11-09T00:18:59.855Z,97028.97
2022-11-09T00:21:28.402Z,97021.88
2022-11-09T00:23:58.337Z,97025.34
2022-11-09T00:26:26.911Z,97013.28
2022-11-09T00:28:55.346Z,97016.03
2022-11-09T00:31:25.126Z,97013.41
2022-11-09T00:33:55.437Z,97012.56
2022-11-09T00:36:25.223Z,97018.69
2022-11-09T00:38:54.552Z,97023.13
2022-11-09T00:41:24.626Z,97017.03
2022-11-09T00:43:53.364Z,97013.81
2022-11-09T00:46:22.413Z,97004.94
2022-11-09T00:48:52.748Z,97004.09
2022-11-09T00:51:21.266Z,96994.53
2022-11-09T00:53:53.763Z,97000.63
2022-11-09T00:56:24.405Z,97008.69
2022-11-09T00:58:55.528Z,97000.78
2022-11-09T01:01:24.202Z,97003.28
2022-11-09T01:03:52.934Z,97000.78
2022-11-09T01:06:22.993Z,96998.13
2022-11-09T01:08:52.419Z,97009.66
2022-11-09T01:11:22.445Z,97010.63
2022-11-09T01:13:55.418Z,97009.81
2022-11-09T01:16:24.669Z,97011.63
2022-11-09T01:18:57.059Z,97010.91
2022-11-09T01:21:28.982Z,97024.09
2022-11-09T01:23:58.458Z,97022.31
2022-11-09T01:26:29.435Z,97019.81
2022-11-09T01:28:59.292Z,97030.34
2022-11-09T01:31:28.084Z,97026.88
2022-11-09T01:33:56.619Z,97027.03
2022-11-09T01:36:26.133Z,97028.69
2022-11-09T01:38:54.805Z,97027.84
2022-11-09T01:41:25.545Z,97025.34
2022-11-09T01:44:10.843Z,97024.38
2022-11-09T01:46:45.458Z,97026.19
2022-11-09T01:49:19.760Z,97027.34
2022-11-09T01:51:52.485Z,97024.69
2022-11-09T01:54:23.094Z,97028.97
2022-11-09T01:56:54.500Z,97035.25
2022-11-09T01:59:29.208Z,97028.31
2022-11-09T02:01:57.895Z,97029.28
2022-11-09T02:04:30.642Z,97030.25
2022-11-09T02:07:00.190Z,97029.28
2022-11-09T02:09:32.625Z,97018.88
2022-11-09T02:12:01.284Z,97011.94
2022-11-09T02:14:31.443Z,97019.84
2022-11-09T02:17:00.348Z,97018.16
2022-11-09T02:19:28.828Z,97008.44
2022-11-09T02:21:58.742Z,97007.63
2022-11-09T02:24:27.257Z,97012.75
2022-11-09T02:26:56.089Z,97006.78
2022-11-09T02:29:27.726Z,97001.66
2022-11-09T02:31:58.519Z,96999.00
2022-11-09T02:34:27.011Z,97000.00
2022-11-09T02:36:55.569Z,96993.88
2022-11-09T02:39:27.124Z,97009.84
2022-11-09T02:41:57.993Z,97004.72
2022-11-09T02:44:33.266Z,97000.41
2022-11-09T02:47:01.794Z,97006.50
2022-11-09T02:49:31.592Z,97010.13
2022-11-09T02:52:00.094Z,97008.31
2022-11-09T02:54:30.005Z,97009.28
2022-11-09T02:56:59.272Z,97003.31
2022-11-09T02:59:28.573Z,97005.81
2022-11-09T03:01:57.188Z,97004.84
2022-11-09T03:04:25.661Z,97004.97
2022-11-09T03:06:54.601Z,96999.00
2022-11-09T03:09:23.880Z,97001.66
2022-11-09T03:11:53.750Z,97004.28
2022-11-09T03:14:22.666Z,97011.50
2022-11-09T03:16:55.834Z,97010.66
2022-11-09T03:19:24.606Z,97007.06
2022-11-09T03:21:54.377Z,97001.78
2022-11-09T03:24:25.451Z,96997.63
2022-11-09T03:26:59.130Z,96991.53
2022-11-09T03:29:28.009Z,96998.47
2022-11-09T03:31:57.403Z,96999.56
2022-11-09T03:34:25.942Z,97011.09
2022-11-09T03:36:54.719Z,96999.72
2022-11-09T03:39:24.371Z,97012.88
2022-11-09T03:41:52.876Z,97009.28
2022-11-09T03:44:22.786Z,97012.88
2022-11-09T03:46:51.383Z,97010.25
2022-11-09T03:49:19.846Z,97012.06
2022-11-09T03:51:48.344Z,97003.44
2022-11-09T03:54:16.854Z,97004.41
2022-11-09T03:56:45.419Z,97007.75
2022-11-09T03:59:13.907Z,97003.44
2022-11-09T04:01:43.807Z,96994.84
2022-11-09T04:04:12.300Z,97002.75
2022-11-09T04:06:40.801Z,97000.13
2022-11-09T04:09:10.524Z,96994.00
2022-11-09T04:11:39.050Z,96991.50
2022-11-09T04:14:07.581Z,97003.03
2022-11-09T04:16:36.053Z,96998.59
2022-11-09T04:19:05.934Z,96996.09
2022-11-09T04:21:34.615Z,96999.56
2022-11-09T04:24:03.096Z,96997.75
2022-11-09T04:26:31.623Z,97004.00
2022-11-09T04:29:00.105Z,97007.59
2022-11-09T04:31:28.578Z,96996.22
2022-11-09T04:33:57.096Z,96997.06
2022-11-09T04:36:27.011Z,97000.66
2022-11-09T04:38:55.523Z,97014.69
2022-11-09T04:41:24.093Z,97016.50
2022-11-09T04:43:52.683Z,97014.81
2022-11-09T04:46:21.187Z,97016.91
2022-11-09T04:48:49.727Z,97022.88
2022-11-09T04:51:18.204Z,97020.38
2022-11-09T04:53:48.194Z,97025.63
2022-11-09T04:56:16.717Z,97022.16
2022-11-09T04:58:45.178Z,97028.28
2022-11-09T05:01:15.220Z,97034.38
2022-11-09T05:03:43.872Z,97036.19
2022-11-09T05:06:29.903Z,97027.56
2022-11-09T05:09:00.981Z,97023.28
2022-11-09T05:11:29.677Z,97028.53
2022-11-09T05:13:58.486Z,97028.66
2022-11-09T05:16:27.064Z,97024.34
2022-11-09T05:18:55.905Z,97038.38
2022-11-09T05:21:24.557Z,97037.44
2022-11-09T05:24:01.069Z,97048.06
2022-11-09T05:26:32.576Z,97048.91
2022-11-09T05:29:02.066Z,97043.78
2022-11-09T05:31:30.848Z,97045.56
2022-11-09T05:34:00.111Z,97044.75
2022-11-09T05:36:29.301Z,97054.19
2022-11-09T05:38:58.473Z,97057.22
2022-11-09T05:41:27.389Z,97050.97
2022-11-09T05:43:57.215Z,97047.50
2022-11-09T05:46:26.376Z,97046.53
2022-11-09T05:48:54.872Z,97044.19
2022-11-09T05:51:23.359Z,97055.81
2022-11-09T05:53:51.836Z,97060.97
2022-11-09T05:56:20.327Z,97060.00
2022-11-09T05:58:48.952Z,97056.66
2022-11-09T06:01:19.766Z,97061.09
2022-11-09T06:03:48.561Z,97063.03
2022-11-09T06:06:18.397Z,97081.34
2022-11-09T06:08:47.295Z,97084.94
2022-11-09T06:11:23.057Z,97092.84
2022-11-09T06:13:53.362Z,97070.81
2022-11-09T06:16:23.200Z,97082.44
2022-11-09T06:18:51.656Z,97087.84
2022-11-09T06:21:20.176Z,97094.09
2022-11-09T06:23:49.296Z,97102.00
2022-11-09T06:26:17.884Z,97101.03
2022-11-09T06:28:46.375Z,97104.63
2022-11-09T06:31:16.973Z,97105.59
2022-11-09T06:33:47.544Z,97098.53
2022-11-09T06:36:16.188Z,97104.75
2022-11-09T06:38:44.693Z,97109.91
2022-11-09T06:41:13.179Z,97110.88
2022-11-09T06:43:41.726Z,97112.53
2022-11-09T06:46:11.338Z,97114.34
2022-11-09T06:48:40.153Z,97117.94
2022-11-09T06:51:11.324Z,97122.38
2022-11-09T06:53:41.371Z,97131.25
2022-11-09T06:56:10.283Z,97144.44
2022-11-09T06:58:38.806Z,97146.09
2022-11-09T07:01:11.251Z,97151.38
2022-11-09T07:03:40.672Z,97140.00
2022-11-09T07:06:11.678Z,97157.59
2022-11-09T07:08:40.393Z,97159.28
2022-11-09T07:11:11.209Z,97160.25
2022-11-09T07:13:40.327Z,97152.34
2022-11-09T07:16:11.934Z,97154.13
2022-11-09T07:18:40.551Z,97148.03
2022-11-09T07:21:14.240Z,97149.84
2022-11-09T07:23:43.472Z,97152.34
2022-11-09T07:26:12.034Z,97144.28
2022-11-09T07:28:41.014Z,97146.38
2022-11-09T07:31:09.845Z,97134.84
2022-11-09T07:33:38.661Z,97135.56
2022-11-09T07:36:07.821Z,97138.19
2022-11-09T07:38:37.752Z,97138.19
2022-11-09T07:41:06.468Z,97150.41
2022-11-09T07:43:34.880Z,97154.84
2022-11-09T07:46:06.256Z,97149.44
2022-11-09T07:48:34.708Z,97152.06
2022-11-09T07:51:04.036Z,97147.78
2022-11-09T07:53:33.395Z,97149.44
2022-11-09T07:56:04.353Z,97146.81
2022-11-09T07:58:34.290Z,97160.81
2022-11-09T08:01:08.482Z,97171.50
2022-11-09T08:03:37.367Z,97167.88
2022-11-09T08:06:06.102Z,97164.28
2022-11-09T08:08:34.618Z,97174.81
2022-11-09T08:11:04.485Z,97167.06
2022-11-09T08:13:33.336Z,97166.22
2022-11-09T08:16:02.674Z,97156.63
2022-11-09T08:18:31.440Z,97159.41
2022-11-09T08:21:03.171Z,97162.03
2022-11-09T08:23:32.112Z,97168.16
2022-11-09T08:26:05.203Z,97169.81
2022-11-09T08:28:34.349Z,97163.72
2022-11-09T08:31:06.976Z,97180.34
2022-11-09T08:33:37.544Z,97174.25
2022-11-09T08:36:10.983Z,97168.16
2022-11-09T08:38:39.507Z,97176.06
2022-11-09T08:41:13.396Z,97168.16
2022-11-09T08:43:42.702Z,97184.66
2022-11-09T08:46:11.186Z,97182.03
2022-11-09T08:48:39.681Z,97182.16
2022-11-09T08:51:08.158Z,97191.59
2022-11-09T08:53:36.643Z,97176.75
2022-11-09T08:56:07.147Z,97182.03
2022-11-09T08:58:37.093Z,97188.13
2022-11-09T09:01:12.225Z,97198.53
2022-11-09T09:03:44.245Z,97195.06
2022-11-09T09:06:12.820Z,97185.38
2022-11-09T09:08:41.289Z,97184.41
2022-11-09T09:11:09.794Z,97194.94
2022-11-09T09:13:43.311Z,97192.88
2022-11-09T09:16:13.562Z,97197.31
2022-11-09T09:18:42.207Z,97197.31
2022-11-09T09:21:11.471Z,97187.47
2022-11-09T09:23:40.188Z,97201.09
2022-11-09T09:26:08.879Z,97185.47
2022-11-09T09:28:39.115Z,97195.50
2022-11-09T09:31:08.007Z,97204.09
2022-11-09T09:33:36.660Z,97212.03
2022-11-09T09:36:05.895Z,97210.09
2022-11-09T09:38:34.334Z,97217.88
2022-11-09T09:41:04.324Z,97214.41
2022-11-09T09:43:42.598Z,97211.63
2022-11-09T09:46:17.325Z,97205.50
2022-11-09T09:48:50.023Z,97207.44
2022-11-09T09:51:20.913Z,97210.22
2022-11-09T09:53:53.701Z,97209.50
2022-11-09T09:56:24.671Z,97214.66
2022-11-09T09:58:57.252Z,97202.44
2022-11-09T10:01:35.216Z,97202.44
2022-11-09T10:04:03.817Z,97198.00
2022-11-09T10:06:41.390Z,97197.88
2022-11-09T10:09:22.901Z,97202.31
2022-11-09T10:12:00.994Z,97187.31
2022-11-09T10:14:42.002Z,97188.03
2022-11-09T10:17:17.009Z,97179.28
2022-11-09T10:19:54.012Z,97174.72
2022-11-09T10:22:28.384Z,97179.97
2022-11-09T10:27:52.816Z,97178.19
2022-11-09T10:30:22.781Z,97190.41
2022-11-09T10:32:55.636Z,97178.88
2022-11-09T10:35:29.645Z,97187.34
2022-11-09T10:37:58.220Z,97178.34
2022-11-09T10:40:29.904Z,97178.22
2022-11-09T10:43:16.918Z,97175.56
2022-11-09T10:46:06.325Z,97164.88
2022-11-09T10:48:56.248Z,97163.09
2022-11-09T10:51:46.465Z,97162.25
2022-11-09T10:54:35.357Z,97162.13
2022-11-09T10:57:24.286Z,97161.97
2022-11-09T11:00:15.954Z,97154.91
2022-11-09T11:03:12.014Z,97153.81
2022-11-09T11:06:02.121Z,97147.56
2022-11-09T11:08:50.267Z,97137.84
2022-11-09T11:11:38.674Z,97136.16
2022-11-09T11:14:31.336Z,97145.88
2022-11-09T11:17:26.219Z,97135.34
2022-11-09T11:20:27.505Z,97134.50
2022-11-09T11:23:18.348Z,97128.38
2022-11-09T11:26:32.960Z,97134.38
2022-11-09T11:29:32.714Z,97131.72
2022-11-09T11:32:20.946Z,97120.78
2022-11-09T11:35:14.495Z,97129.22
2022-11-09T11:38:12.790Z,97125.59
2022-11-09T11:41:11.809Z,97120.88
2022-11-09T11:44:04.720Z,97121.44
2022-11-09T11:47:00.097Z,97110.91
2022-11-09T11:50:22.009Z,97115.06
2022-11-09T11:53:23.448Z,97108.81
2022-11-09T11:56:21.985Z,97108.81
2022-11-09T11:59:44.470Z,97104.38
2022-11-09T12:02:58.399Z,97100.06
2022-11-09T12:06:00.109Z,97098.13
2022-11-09T12:09:04.662Z,97090.91
2022-11-09T12:12:06.222Z,97086.47
2022-11-09T12:15:05.068Z,97084.78
2022-11-09T12:18:02.513Z,97089.94
2022-11-09T12:20:58.447Z,97086.31
2022-11-09T12:23:59.456Z,97084.38
2022-11-09T12:27:30.585Z,97072.00
2022-11-09T12:30:15.849Z,97071.88
2022-11-09T12:33:05.795Z,97064.78
2022-11-09T12:35:56.225Z,97058.41
2022-11-09T12:38:52.102Z,97066.19
2022-11-09T12:41:40.183Z,97059.09
2022-11-09T12:44:33.083Z,97055.47
2022-11-09T12:47:25.356Z,97057.00
2022-11-09T12:50:13.967Z,97059.66
2022-11-09T12:53:03.053Z,97049.94
2022-11-09T12:55:53.387Z,97044.50
2022-11-09T12:58:41.254Z,97046.16
2022-11-09T13:01:49.663Z,97042.56
2022-11-09T13:04:37.554Z,97036.44
2022-11-09T13:07:33.368Z,97038.94
2022-11-09T13:10:29.963Z,97039.78
2022-11-09T13:13:23.586Z,97039.78
2022-11-09T13:16:13.536Z,97041.44
2022-11-09T13:19:02.156Z,97041.31
2022-11-09T13:21:49.356Z,97036.84
2022-11-09T13:24:55.124Z,97045.47
2022-11-09T13:27:44.677Z,97050.59
2022-11-09T13:30:41.870Z,97042.69
2022-11-09T13:33:29.541Z,97049.63
2022-11-09T13:36:20.369Z,97050.47
2022-11-09T13:39:40.237Z,97051.44
2022-11-09T13:42:29.511Z,97053.78
2022-11-09T13:45:27.639Z,97052.81
2022-11-09T13:48:42.353Z,97055.47
2022-11-09T13:51:46.033Z,97052.81
2022-11-09T13:54:34.153Z,97060.72
2022-11-09T13:57:22.767Z,97055.72
2022-11-09T14:00:18.853Z,97064.63
2022-11-09T14:03:18.253Z,97052.25
2022-11-09T14:06:06.033Z,97048.94
2022-11-09T14:08:54.643Z,97053.22
2022-11-09T14:11:52.134Z,97048.94
2022-11-09T14:15:06.172Z,97047.81
2022-11-09T14:18:03.724Z,97048.63
2022-11-09T14:20:55.972Z,97051.97
2022-11-09T14:23:43.291Z,97053.63
2022-11-09T14:26:31.914Z,97056.97
2022-11-09T14:29:22.146Z,97059.47
2022-11-09T14:32:27.091Z,97060.44
2022-11-09T14:35:25.536Z,97053.50
2022-11-09T14:38:18.767Z,97056.97
2022-11-09T14:41:06.661Z,97062.25
2022-11-09T14:43:57.242Z,97060.44
2022-11-09T14:46:44.679Z,97065.72
2022-11-09T14:49:31.486Z,97075.31
2022-11-09T14:52:24.032Z,97062.25
2022-11-09T14:55:14.655Z,97070.16
2022-11-09T14:58:01.728Z,97068.38
2022-11-09T15:01:08.206Z,97069.19
2022-11-09T15:04:09.579Z,97069.19
2022-11-09T15:07:00.939Z,97065.72
2022-11-09T15:09:50.673Z,97076.28
2022-11-09T15:12:41.337Z,97063.91
2022-11-09T15:15:34.275Z,97080.59
2022-11-09T15:18:33.346Z,97082.41
2022-11-09T15:21:34.430Z,97085.03
2022-11-09T15:24:22.377Z,97086.72
2022-11-09T15:27:31.641Z,97081.44
2022-11-09T15:30:29.874Z,97085.88
2022-11-09T15:33:27.166Z,97084.06
2022-11-09T15:36:29.617Z,97081.44
2022-11-09T15:39:18.904Z,97085.03
2022-11-09T15:42:06.027Z,97099.91
2022-11-09T15:44:54.441Z,97097.28
2022-11-09T15:47:41.738Z,97105.19
2022-11-09T15:50:30.045Z,97096.44
2022-11-09T15:53:17.293Z,97108.81
2022-11-09T15:56:05.109Z,97119.22
2022-11-09T15:58:53.455Z,97119.22
2022-11-09T16:01:41.044Z,97129.78
2022-11-09T16:04:27.993Z,97121.72
2022-11-09T16:07:17.390Z,97122.69
2022-11-09T16:10:05.764Z,97118.25
2022-11-09T16:12:53.354Z,97131.47
2022-11-09T16:15:40.837Z,97131.47
2022-11-09T16:18:28.102Z,97134.94
2022-11-09T16:21:17.154Z,97145.50
2022-11-09T16:24:05.775Z,97148.97
2022-11-09T16:26:54.650Z,97142.84
2022-11-09T16:29:41.897Z,97137.56
2022-11-09T16:32:29.187Z,97142.03
2022-11-09T16:35:27.188Z,97143.81
2022-11-09T16:38:15.316Z,97153.41
2022-11-09T16:41:04.427Z,97158.69
2022-11-09T16:43:54.009Z,97163.97
2022-11-09T16:46:42.243Z,97163.97
2022-11-09T16:49:29.214Z,97170.94
2022-11-09T16:52:16.535Z,97169.25
2022-11-09T16:55:03.288Z,97175.38
2022-11-09T16:57:52.122Z,97180.66
2022-11-09T17:01:08.775Z,97179.81
2022-11-09T17:03:52.014Z,97184.13
2022-11-09T17:06:39.403Z,97181.50
2022-11-09T17:09:26.565Z,97182.31
2022-11-09T17:12:14.183Z,97186.78
2022-11-09T17:15:02.698Z,97184.13
2022-11-09T17:17:49.684Z,97186.78
2022-11-09T17:20:42.866Z,97176.22
2022-11-09T17:23:31.451Z,97192.06
2022-11-09T17:26:19.357Z,97186.63
2022-11-09T17:29:07.026Z,97194.69
2022-11-09T17:31:55.704Z,97196.38
2022-11-09T17:34:42.842Z,97197.19
2022-11-09T17:37:29.975Z,97204.28
2022-11-09T17:40:19.808Z,97212.22
2022-11-09T17:43:06.934Z,97211.22
2022-11-09T17:45:54.011Z,97209.56
2022-11-09T17:48:43.710Z,97217.50
2022-11-09T17:51:31.246Z,97216.66
2022-11-09T17:54:18.521Z,97225.41
2022-11-09T17:57:05.621Z,97233.34
2022-11-09T17:59:52.755Z,97236.81
2022-11-09T18:02:39.982Z,97237.66
2022-11-09T18:05:29.091Z,97246.53
2022-11-09T18:08:16.421Z,97241.25
2022-11-09T18:11:03.593Z,97239.59
2022-11-09T18:13:50.980Z,97241.25
2022-11-09T18:16:38.473Z,97238.63
2022-11-09T18:19:25.559Z,97246.53
2022-11-09T18:22:14.142Z,97238.63
2022-11-09T18:25:01.718Z,97245.72
2022-11-09T18:27:48.875Z,97249.19
2022-11-09T18:30:41.605Z,97242.22
2022-11-09T18:33:29.935Z,97251.00
2022-11-09T18:36:19.851Z,97243.06
2022-11-09T18:39:09.354Z,97239.44
2022-11-09T18:41:57.060Z,97235.13
2022-11-09T18:44:44.488Z,97249.19
2022-11-09T18:47:31.548Z,97245.72
2022-11-09T18:50:19.635Z,97250.00
2022-11-09T18:53:07.119Z,97246.53
2022-11-09T18:56:06.103Z,97257.25
2022-11-09T18:58:55.733Z,97264.88
2022-11-09T19:01:42.849Z,97271.13
2022-11-09T19:04:30.470Z,97279.06
2022-11-09T19:07:18.126Z,97266.84
2022-11-09T19:10:07.042Z,97279.91
2022-11-09T19:12:55.672Z,97277.41
2022-11-09T19:15:44.285Z,97284.34
2022-11-09T19:18:31.557Z,97296.72
2022-11-09T19:21:28.771Z,97302.97
2022-11-09T19:24:19.872Z,97302.44
2022-11-09T19:27:07.000Z,97302.19
2022-11-09T19:29:58.386Z,97311.31
2022-11-09T19:32:45.580Z,97316.88
2022-11-09T19:35:34.139Z,97324.94
2022-11-09T19:38:21.602Z,97325.06
2022-11-09T19:41:08.974Z,97319.78
2022-11-09T19:43:59.175Z,97317.13
2022-11-09T19:46:47.993Z,97319.78
2022-11-09T19:49:34.995Z,97328.53
2022-11-09T19:52:21.902Z,97333.00
2022-11-09T19:55:09.685Z,97332.16
2022-11-09T19:57:57.132Z,97341.75
2022-11-09T20:00:44.323Z,97334.66
2022-11-09T20:03:33.138Z,97330.34
2022-11-09T20:06:21.177Z,97340.91
2022-11-09T20:09:08.704Z,97336.72
2022-11-09T20:12:12.260Z,97337.44
2022-11-09T20:14:59.588Z,97341.88
2022-11-09T20:17:47.395Z,97335.75
2022-11-09T20:20:36.495Z,97334.94
2022-11-09T20:23:23.851Z,97340.22
2022-11-09T20:26:12.414Z,97347.28
2022-11-09T20:28:59.934Z,97348.13
2022-11-09T20:31:47.027Z,97348.13
2022-11-09T20:34:34.079Z,97354.38
2022-11-09T20:37:22.327Z,97358.69
2022-11-09T20:40:10.550Z,97355.09
2022-11-09T20:42:58.011Z,97350.78
2022-11-09T20:45:45.254Z,97366.63
2022-11-09T20:48:52.899Z,97378.00
2022-11-09T20:51:39.814Z,97378.84
2022-11-09T20:54:28.382Z,97384.13
2022-11-09T20:57:15.474Z,97383.28
2022-11-09T21:00:02.818Z,97382.47
2022-11-09T21:02:50.170Z,97378.84
2022-11-09T21:05:37.180Z,97376.22
2022-11-09T21:08:24.926Z,97392.06
2022-11-09T21:11:13.937Z,97395.66
2022-11-09T21:14:01.357Z,97404.28
2022-11-09T21:16:48.436Z,97405.25
2022-11-09T21:19:35.670Z,97416.66
2022-11-09T21:22:22.678Z,97407.06
2022-11-09T21:25:41.511Z,97408.88
2022-11-09T21:28:47.708Z,97414.16
2022-11-09T21:31:34.514Z,97412.47
2022-11-09T21:34:21.678Z,97421.94
2022-11-09T21:37:09.820Z,97426.38
2022-11-09T21:39:56.810Z,97421.09
2022-11-09T21:42:43.764Z,97421.94
2022-11-09T21:45:32.416Z,97423.88
2022-11-09T21:48:20.090Z,97424.72
2022-11-09T21:51:07.456Z,97418.47
2022-11-09T21:53:54.646Z,97426.38
2022-11-09T21:56:42.079Z,97435.97
2022-11-09T21:59:28.967Z,97433.34
2022-11-09T22:02:17.606Z,97435.97
2022-11-09T22:05:05.268Z,97442.22
2022-11-09T22:07:52.662Z,97449.19
2022-11-09T22:10:39.851Z,97447.50
2022-11-09T22:13:44.762Z,97455.31
2022-11-09T22:16:33.609Z,97451.00
2022-11-09T22:19:39.546Z,97449.19
2022-11-09T22:22:29.101Z,97447.50
2022-11-09T22:25:16.217Z,97449.19
2022-11-09T22:28:03.466Z,97458.91
2022-11-09T22:30:50.940Z,97458.91
2022-11-09T22:33:38.027Z,97460.72
2022-11-09T22:36:26.624Z,97464.31
2022-11-09T22:39:13.869Z,97467.81
2022-11-09T22:42:00.969Z,97466.97
2022-11-09T22:44:48.049Z,97480.16
2022-11-09T22:47:35.163Z,97482.81
2022-11-09T22:50:22.301Z,97489.91
2022-11-09T22:53:10.742Z,97492.53
2022-11-09T22:55:58.967Z,97489.19
2022-11-09T22:58:46.411Z,97499.63
2022-11-09T23:01:33.549Z,97492.53
2022-11-09T23:04:20.919Z,97504.91
2022-11-09T23:07:08.045Z,97501.31
2022-11-09T23:09:56.566Z,97512.81
2022-11-09T23:12:43.838Z,97503.09
2022-11-09T23:15:31.135Z,97512.81
2022-11-09T23:18:35.611Z,97509.22
2022-11-09T23:21:25.864Z,97512.00
2022-11-09T23:24:35.028Z,97526.03
2022-11-09T23:27:23.335Z,97520.75
2022-11-09T23:30:11.226Z,97530.47
2022-11-09T23:33:01.217Z,97527.00
2022-11-09T23:35:48.417Z,97533.13
2022-11-09T23:38:37.015Z,97540.06
2022-11-09T23:41:24.258Z,97535.63
2022-11-09T23:44:12.778Z,97542.00
2022-11-09T23:46:59.411Z,97532.28
2022-11-09T23:49:46.708Z,97538.53
2022-11-09T23:52:34.751Z,97537.81
2022-11-09T23:55:21.630Z,97538.66
2022-11-09T23:58:09.296Z,97545.63
